createdAt,value
2023-05-12T11:18:20.590Z,21.7958
2023-05-12T11:19:22.366Z,21.5102
2023-05-12T11:20:24.322Z,21.4904
2023-05-12T11:21:26.224Z,21.5484
2023-05-12T11:22:28.253Z,21.6279
2023-05-12T11:46:50.653Z,21.8201
2023-05-12T11:47:52.566Z,21.6170
2023-05-12T11:48:54.447Z,21.6090
2023-05-12T11:49:56.424Z,21.6321
2023-05-12T11:50:58.289Z,21.6546
2023-05-12T11:52:00.190Z,21.6960
2023-05-12T11:53:02.129Z,21.7351
2023-05-12T11:54:04.041Z,21.7836
2023-05-12T11:55:06.189Z,21.8416
2023-05-12T11:56:07.897Z,21.8805
2023-05-12T11:57:09.800Z,21.9349
2023-05-12T11:58:11.725Z,22.0061
2023-05-12T11:59:13.655Z,22.0712
2023-05-12T12:00:15.574Z,22.0945
2023-05-12T12:01:17.600Z,22.1505
2023-05-12T12:02:19.466Z,22.1962
2023-05-12T12:03:21.481Z,22.1743
2023-05-12T12:04:23.285Z,22.1858
2023-05-12T12:05:25.177Z,22.2262
2023-05-12T12:06:27.159Z,22.2889
2023-05-12T12:07:29.000Z,22.3142
2023-05-12T12:08:30.941Z,22.3566
2023-05-12T12:09:32.850Z,22.4263
2023-05-12T12:10:34.751Z,22.4582
2023-05-12T12:11:36.667Z,22.4934
2023-05-12T12:12:38.752Z,22.5506
2023-05-12T12:13:40.506Z,22.5798
2023-05-12T12:14:42.467Z,22.5740
2023-05-12T12:15:44.376Z,22.5553
2023-05-12T12:16:46.270Z,22.5366
2023-05-12T12:17:48.475Z,22.5783
2023-05-12T12:18:50.139Z,22.6065
2023-05-12T12:19:52.020Z,22.5606
2023-05-12T12:20:53.951Z,22.5829
2023-05-12T12:21:55.866Z,22.5992
2023-05-12T12:22:57.782Z,22.6579
2023-05-12T12:23:59.808Z,22.6694
2023-05-12T12:25:01.605Z,22.6608
2023-05-12T12:26:03.544Z,22.6893
2023-05-12T12:27:05.454Z,22.6755
2023-05-12T12:28:07.369Z,22.5749
2023-05-12T12:29:09.291Z,22.5989
2023-05-12T12:30:11.433Z,22.5374
2023-05-12T12:31:13.113Z,22.4736
2023-05-12T12:32:15.056Z,22.4333
2023-05-12T12:33:19.649Z,22.5104
2023-05-12T12:34:18.868Z,22.5595
2023-05-12T12:35:21.019Z,22.6467
2023-05-12T12:36:22.846Z,22.7135
2023-05-12T12:37:24.634Z,22.7500
2023-05-12T12:38:26.546Z,22.8175
2023-05-12T12:39:28.480Z,22.8399
2023-05-12T12:40:30.392Z,22.8504
2023-05-12T12:41:32.305Z,22.9004
2023-05-12T12:42:34.369Z,22.9059
2023-05-12T12:43:36.144Z,22.9280
2023-05-12T12:44:38.064Z,22.8748
2023-05-12T12:45:39.996Z,22.8685
2023-05-12T12:46:41.957Z,22.8204
2023-05-12T12:47:43.869Z,22.7172
2023-05-12T12:48:45.860Z,22.7385
2023-05-12T12:49:47.665Z,22.7422
2023-05-12T12:50:49.592Z,22.6561
2023-05-12T12:51:51.510Z,22.6523
2023-05-12T12:52:53.440Z,22.6064
2023-05-12T12:53:55.349Z,22.6323
2023-05-12T12:54:57.365Z,22.6720
2023-05-12T12:55:59.173Z,22.6863
2023-05-12T12:57:01.105Z,22.7149
2023-05-12T12:58:03.011Z,22.7612
2023-05-12T12:59:04.947Z,22.7852
2023-05-12T13:00:06.970Z,22.7448
2023-05-12T13:01:08.808Z,22.7543
2023-05-12T13:02:10.723Z,22.7484
2023-05-12T13:03:12.638Z,22.7452
2023-05-12T13:04:14.519Z,22.6942
2023-05-12T13:05:16.515Z,22.7045
2023-05-12T13:06:18.474Z,22.5253
2023-05-12T13:07:20.275Z,22.4866
2023-05-12T13:08:22.204Z,22.4452
2023-05-12T13:09:24.122Z,22.4874
2023-05-12T13:10:26.048Z,22.5514
2023-05-12T13:11:28.068Z,22.5969
2023-05-12T13:12:29.873Z,22.6435
2023-05-12T13:13:31.781Z,22.6652
2023-05-12T13:14:33.706Z,22.6379
2023-05-12T13:15:35.621Z,22.6029
2023-05-12T13:16:37.557Z,22.6274
2023-05-12T13:17:39.588Z,22.6731
2023-05-12T13:18:41.425Z,22.7356
2023-05-12T13:19:43.302Z,22.7442
2023-05-12T13:20:45.233Z,22.7591
2023-05-12T13:21:47.137Z,22.7786
2023-05-12T13:22:49.062Z,22.7858
2023-05-12T13:23:51.127Z,22.7826
2023-05-12T13:24:52.899Z,22.8174
2023-05-12T13:25:54.800Z,22.8685
2023-05-12T13:26:56.745Z,22.8745
2023-05-12T13:27:58.640Z,22.8734
2023-05-12T13:29:00.567Z,22.8552
2023-05-12T13:30:02.597Z,22.8440
2023-05-12T13:31:04.438Z,22.8180
2023-05-12T13:32:06.323Z,22.8066
2023-05-12T13:33:08.307Z,22.7127
2023-05-12T13:34:10.169Z,22.7013
2023-05-12T13:35:12.071Z,22.7289
2023-05-12T13:36:14.104Z,22.7681
2023-05-12T13:37:15.922Z,22.8373
2023-05-12T13:38:17.831Z,22.8136
2023-05-12T13:39:19.911Z,22.7360
2023-05-12T13:40:21.659Z,22.6909
2023-05-12T13:41:23.626Z,22.5508
2023-05-12T13:42:25.608Z,22.4284
2023-05-12T13:43:27.431Z,22.3822
2023-05-12T13:44:29.332Z,22.4007
2023-05-12T13:45:31.270Z,22.5357
2023-05-12T13:46:33.225Z,22.5691
2023-05-12T13:47:35.137Z,22.5507
2023-05-12T13:48:37.159Z,22.4706
2023-05-12T13:49:38.929Z,22.4500
2023-05-12T13:50:40.859Z,22.4638
2023-05-12T13:51:42.768Z,22.4376
2023-05-12T13:52:44.669Z,22.4550
2023-05-12T13:53:46.607Z,22.4918
2023-05-12T13:54:48.625Z,22.5676
2023-05-12T13:55:50.500Z,22.4653
2023-05-12T13:56:52.335Z,22.4461
2023-05-12T13:57:54.250Z,22.4957
2023-05-12T13:58:56.191Z,22.5582
2023-05-12T13:59:58.219Z,22.5739
2023-05-12T14:01:00.007Z,22.6621
2023-05-12T14:02:02.099Z,22.6900
2023-05-12T14:03:03.904Z,22.7169
2023-05-12T14:04:05.781Z,22.7281
2023-05-12T14:05:07.797Z,22.6488
2023-05-12T14:06:09.731Z,22.5807
2023-05-12T14:07:11.525Z,22.5590
2023-05-12T14:08:13.426Z,22.6029
2023-05-12T14:09:15.372Z,22.6091
2023-05-12T14:10:17.272Z,22.6374
2023-05-12T14:11:19.266Z,22.6506
2023-05-12T14:12:21.739Z,22.6838
2023-05-12T14:13:23.021Z,22.6406
2023-05-12T14:14:24.962Z,22.5966
2023-05-12T14:15:40.103Z,22.6197
2023-05-12T14:16:28.804Z,22.6661
2023-05-12T14:17:30.863Z,22.7187
2023-05-12T14:18:32.661Z,22.7668
2023-05-12T14:19:34.547Z,22.7479
2023-05-12T14:20:36.451Z,22.7236
2023-05-12T14:21:38.392Z,22.6769
2023-05-12T14:22:40.307Z,22.5730
2023-05-12T14:23:42.335Z,22.5149
2023-05-12T14:24:44.127Z,22.5548
2023-05-12T14:25:46.070Z,22.6060
2023-05-12T14:26:48.048Z,22.6038
2023-05-12T14:27:50.123Z,22.6014
2023-05-12T14:28:51.820Z,22.6623
2023-05-12T14:29:53.898Z,22.6956
2023-05-12T14:30:55.673Z,22.5759
2023-05-12T14:31:57.638Z,22.4932
2023-05-12T14:32:59.528Z,22.4435
2023-05-12T14:34:01.436Z,22.4758
2023-05-12T14:35:03.335Z,22.4514
2023-05-12T14:36:07.831Z,22.3964
2023-05-12T14:37:07.283Z,22.3646
2023-05-12T14:38:09.106Z,22.3804
2023-05-12T14:39:11.028Z,22.3373
2023-05-12T14:40:12.924Z,22.2360
2023-05-12T14:41:14.858Z,22.2121
2023-05-12T14:42:16.870Z,22.1574
2023-05-12T14:43:18.700Z,22.1542
2023-05-12T14:44:20.625Z,22.1094
2023-05-12T14:45:22.848Z,22.1136
2023-05-12T14:46:24.472Z,22.0926
2023-05-12T14:47:26.383Z,22.0018
2023-05-12T14:48:28.385Z,21.9830
2023-05-12T14:49:30.241Z,22.0074
2023-05-12T14:50:32.135Z,22.0716
2023-05-12T14:51:34.042Z,22.1090
2023-05-12T14:52:35.956Z,22.1350
2023-05-12T14:53:37.976Z,22.1197
2023-05-12T14:54:39.812Z,22.0936
2023-05-12T14:55:41.728Z,22.1054
2023-05-12T14:56:43.671Z,22.1088
2023-05-12T14:57:45.552Z,22.1038
2023-05-12T14:58:47.474Z,22.0569
2023-05-12T14:59:49.503Z,22.0728
2023-05-12T15:00:51.354Z,22.1050
2023-05-12T15:01:53.247Z,22.1250
2023-05-12T15:02:55.233Z,22.0855
2023-05-12T15:03:57.068Z,22.0617
2023-05-12T15:04:59.097Z,22.0616
2023-05-12T15:07:02.845Z,22.0299
2023-05-12T15:08:04.761Z,22.0219
2023-05-12T15:09:06.681Z,21.9973
2023-05-12T15:10:08.599Z,21.9883
2023-05-12T15:11:10.605Z,21.9757
2023-05-12T15:12:12.467Z,21.9810
2023-05-12T15:13:14.365Z,21.9705
2023-05-12T15:14:16.291Z,21.9849
2023-05-12T15:15:18.355Z,22.0004
2023-05-12T15:16:20.265Z,21.9789
2023-05-12T15:17:22.057Z,21.9660
2023-05-12T15:18:24.058Z,21.9533
2023-05-12T15:19:25.904Z,21.9415
2023-05-12T15:20:27.814Z,21.9673
2023-05-12T15:21:29.744Z,21.9901
2023-05-12T15:22:31.669Z,21.9736
2023-05-12T15:23:33.576Z,21.9617
2023-05-12T15:24:35.482Z,21.9520
2023-05-12T15:25:37.409Z,21.9416
2023-05-12T15:26:40.249Z,21.8990
2023-05-12T15:27:41.254Z,21.9407
2023-05-12T15:28:43.178Z,21.9987
2023-05-12T15:29:45.079Z,22.0279
2023-05-12T15:30:47.025Z,22.0539
2023-05-12T15:31:49.028Z,22.0678
2023-05-12T15:32:50.881Z,22.0018
2023-05-12T15:33:52.794Z,21.9305
2023-05-12T15:34:54.762Z,21.8732
2023-05-12T15:35:56.604Z,21.8969
2023-05-12T15:36:58.541Z,21.9192
2023-05-12T15:38:00.466Z,21.9588
2023-05-12T15:39:02.427Z,21.9693
2023-05-12T15:40:04.313Z,21.9626
2023-05-12T15:41:06.216Z,21.9963
2023-05-12T15:42:08.539Z,22.0033
2023-05-12T15:43:10.054Z,21.9887
2023-05-12T15:44:11.969Z,21.9694
2023-05-12T15:45:13.899Z,21.9425
2023-05-12T15:46:15.835Z,21.9598
2023-05-12T15:47:17.721Z,21.9564
2023-05-12T15:48:19.691Z,21.9534
2023-05-12T15:49:21.639Z,21.9328
2023-05-12T15:50:23.550Z,21.9017
2023-05-12T15:51:25.485Z,21.8575
2023-05-12T15:52:27.405Z,21.8679
2023-05-12T15:53:29.322Z,21.8811
2023-05-12T15:54:31.264Z,21.9241
2023-05-12T15:55:33.169Z,21.9453
2023-05-12T15:56:35.087Z,21.9558
2023-05-12T15:57:36.998Z,21.9353
2023-05-12T15:58:38.933Z,21.9748
2023-05-12T15:59:40.859Z,21.9898
2023-05-12T16:00:42.795Z,22.0803
2023-05-12T16:01:44.683Z,22.0719
2023-05-12T16:02:46.670Z,21.9918
2023-05-12T16:03:48.575Z,21.9284
2023-05-12T16:04:50.462Z,21.8996
2023-05-12T16:05:52.361Z,21.8724
2023-05-12T16:06:54.359Z,21.8417
2023-05-12T16:07:56.188Z,21.8450
2023-05-12T16:08:58.125Z,21.8559
2023-05-12T16:10:00.065Z,21.9789
2023-05-12T16:11:01.990Z,22.0657
2023-05-12T16:12:03.888Z,22.0703
2023-05-12T16:13:05.789Z,22.0405
2023-05-12T16:14:07.711Z,22.0988
2023-05-12T16:15:09.659Z,22.1009
2023-05-12T16:16:11.572Z,22.1003
2023-05-12T16:17:13.491Z,22.1375
2023-05-12T16:18:15.450Z,22.0734
2023-05-12T16:19:17.314Z,21.9891
2023-05-12T16:20:19.248Z,21.9393
2023-05-12T16:21:21.170Z,21.9103
2023-05-12T16:22:23.090Z,21.9173
2023-05-12T16:23:25.001Z,21.9600
2023-05-12T16:24:26.911Z,21.9715
2023-05-12T16:25:28.844Z,21.9445
2023-05-12T16:26:30.768Z,21.9155
2023-05-12T16:27:32.681Z,21.8910
2023-05-12T16:28:34.609Z,21.9342
2023-05-12T16:29:36.534Z,21.9232
2023-05-12T16:30:38.458Z,21.9187
2023-05-12T16:31:40.402Z,21.9538
2023-05-12T16:32:42.334Z,21.9744
2023-05-12T16:33:44.217Z,21.9426
2023-05-12T16:34:46.124Z,21.9205
2023-05-12T16:35:48.044Z,21.8861
2023-05-12T16:36:49.964Z,21.8743
2023-05-12T16:37:51.898Z,21.8697
2023-05-12T16:38:53.836Z,21.8335
2023-05-12T16:39:55.728Z,21.8511
2023-05-12T16:40:57.657Z,21.8445
2023-05-12T16:41:59.574Z,21.8343
2023-05-12T16:43:01.505Z,21.8301
2023-05-12T16:44:03.428Z,21.8087
2023-05-12T16:45:05.360Z,21.8039
2023-05-12T16:46:07.281Z,21.7788
2023-05-12T16:47:09.186Z,21.8062
2023-05-12T16:48:11.121Z,21.8254
2023-05-12T16:49:13.039Z,21.8319
2023-05-12T16:50:14.959Z,21.8647
2023-05-12T16:51:16.877Z,21.8628
2023-05-12T16:52:18.792Z,21.8549
2023-05-12T16:53:20.712Z,21.8703
2023-05-12T16:54:22.798Z,21.8498
2023-05-12T16:55:24.538Z,21.8290
2023-05-12T16:56:26.512Z,21.8304
2023-05-12T16:57:28.396Z,21.8432
2023-05-12T16:58:30.316Z,21.8409
2023-05-12T16:59:32.240Z,21.8751
2023-05-12T17:00:34.140Z,21.8892
2023-05-12T17:01:36.169Z,21.8519
2023-05-12T17:02:38.058Z,21.8399
2023-05-12T17:03:40.030Z,21.8072
2023-05-12T17:04:41.808Z,21.7898
2023-05-12T17:05:43.730Z,21.8042
2023-05-12T17:06:45.654Z,21.7826
2023-05-12T17:07:47.622Z,21.7406
2023-05-12T17:08:49.518Z,21.7693
2023-05-12T17:09:51.426Z,21.7823
2023-05-12T17:10:53.342Z,21.7454
2023-05-12T17:11:55.251Z,21.7166
2023-05-12T17:12:57.185Z,21.7132
2023-05-12T17:13:59.119Z,21.7070
2023-05-12T17:15:07.638Z,21.7063
2023-05-12T17:16:02.972Z,21.7206
2023-05-12T17:17:04.886Z,21.7694
2023-05-12T17:18:06.884Z,21.8187
2023-05-12T17:20:10.616Z,21.8656
2023-05-12T17:21:12.542Z,21.8315
2023-05-12T17:22:14.466Z,21.8098
2023-05-12T17:23:16.382Z,21.7789
2023-05-12T17:24:18.294Z,21.7808
2023-05-12T17:25:20.426Z,21.7844
2023-05-12T17:26:22.143Z,21.7845
2023-05-12T17:27:24.067Z,21.8265
2023-05-12T17:28:25.982Z,21.8486
2023-05-12T17:29:27.886Z,21.8323
2023-05-12T17:30:29.804Z,21.7981
2023-05-12T17:31:31.790Z,21.8343
2023-05-12T17:32:33.726Z,21.8730
2023-05-12T17:33:35.578Z,21.8516
2023-05-12T17:34:37.496Z,21.9001
2023-05-12T17:35:39.416Z,21.9557
2023-05-12T17:36:41.324Z,21.8927
2023-05-12T17:37:43.281Z,21.8601
2023-05-12T17:38:45.183Z,21.9020
2023-05-12T17:39:47.084Z,21.8940
2023-05-12T17:40:49.012Z,21.8609
2023-05-12T17:41:50.933Z,21.9088
2023-05-12T17:42:52.966Z,21.9371
2023-05-12T17:43:54.770Z,21.9337
2023-05-12T17:44:56.699Z,21.9329
2023-05-12T17:45:58.599Z,21.8968
2023-05-12T17:47:00.542Z,21.8654
2023-05-12T17:48:02.517Z,21.8653
2023-05-12T17:49:04.371Z,21.8239
2023-05-12T17:50:06.295Z,21.8156
2023-05-12T17:51:08.198Z,21.7989
2023-05-12T17:52:10.117Z,21.7709
2023-05-12T17:53:12.033Z,21.7518
2023-05-12T17:54:13.954Z,21.7587
2023-05-12T17:55:15.873Z,21.7454
2023-05-12T17:56:17.809Z,21.6891
2023-05-12T17:57:19.704Z,21.6937
2023-05-12T17:58:21.628Z,21.7969
2023-05-12T17:59:23.551Z,21.8412
2023-05-12T18:00:25.462Z,21.8029
2023-05-12T18:01:27.469Z,21.7094
2023-05-12T18:02:29.452Z,21.7141
2023-05-12T18:03:31.266Z,21.7483
2023-05-12T18:04:33.153Z,21.7536
2023-05-12T18:05:36.506Z,21.7785
2023-05-12T18:06:36.989Z,21.8619
2023-05-12T18:07:38.908Z,21.9316
2023-05-12T18:08:40.834Z,22.0144
2023-05-12T18:09:42.730Z,22.0309
2023-05-12T18:10:44.663Z,22.0324
2023-05-12T18:11:46.587Z,22.0486
2023-05-12T18:12:48.511Z,22.0337
2023-05-12T18:13:50.403Z,21.9927
2023-05-12T18:14:52.337Z,21.8966
2023-05-12T18:15:54.266Z,21.9260
2023-05-12T18:16:56.230Z,21.9289
2023-05-12T18:17:58.118Z,21.8952
2023-05-12T18:19:00.014Z,21.9370
2023-05-12T18:20:01.920Z,21.9872
2023-05-12T18:21:03.857Z,22.0128
2023-05-12T18:22:05.746Z,22.0500
2023-05-12T18:23:07.685Z,22.0477
2023-05-12T18:24:09.576Z,22.0571
2023-05-12T18:25:11.508Z,22.0058
2023-05-12T18:26:13.464Z,21.9678
2023-05-12T18:27:15.362Z,21.9373
2023-05-12T18:28:17.254Z,21.9124
2023-05-12T18:29:19.170Z,21.8907
2023-05-12T18:30:21.113Z,21.8808
2023-05-12T18:31:23.046Z,21.9010
2023-05-12T18:32:26.312Z,21.9112
2023-05-12T18:33:26.857Z,21.8225
2023-05-12T18:34:28.754Z,21.8131
2023-05-12T18:35:30.676Z,21.8617
2023-05-12T18:36:32.620Z,21.8843
2023-05-12T18:37:34.522Z,21.8736
2023-05-12T18:38:36.454Z,21.8510
2023-05-12T18:39:38.372Z,21.8279
2023-05-12T18:40:40.270Z,21.8499
2023-05-12T18:41:42.180Z,21.8348
2023-05-12T18:42:44.158Z,21.8381
2023-05-12T18:43:46.048Z,21.7947
2023-05-12T18:44:47.943Z,21.7708
2023-05-12T18:45:49.871Z,21.7712
2023-05-12T18:46:51.839Z,21.7480
2023-05-12T18:47:53.716Z,21.7147
2023-05-12T18:48:55.646Z,21.7605
2023-05-12T18:49:57.555Z,21.7749
2023-05-12T18:50:59.463Z,21.8440
2023-05-12T18:52:01.399Z,21.8470
2023-05-12T18:53:03.320Z,21.8015
2023-05-12T18:54:05.235Z,21.7618
2023-05-12T18:55:07.176Z,21.7409
2023-05-12T18:56:09.064Z,21.7405
2023-05-12T18:57:10.993Z,21.7609
2023-05-12T18:58:12.898Z,21.7375
2023-05-12T18:59:14.838Z,21.7585
2023-05-12T19:00:16.758Z,21.8022
2023-05-12T19:01:18.738Z,21.8000
2023-05-12T19:02:20.600Z,21.7218
2023-05-12T19:03:22.503Z,21.7184
2023-05-12T19:04:24.431Z,21.6953
2023-05-12T19:05:26.387Z,21.6803
2023-05-12T19:06:28.281Z,21.6654
2023-05-12T19:07:30.216Z,21.6390
2023-05-12T19:08:32.103Z,21.5850
2023-05-12T19:09:34.027Z,21.5989
2023-05-12T19:10:38.611Z,21.5945
2023-05-12T19:11:37.874Z,21.6308
2023-05-12T19:12:39.805Z,21.6559
2023-05-12T19:13:41.718Z,21.6840
2023-05-12T19:14:43.629Z,21.6717
2023-05-12T19:15:45.596Z,21.6740
2023-05-12T19:16:47.544Z,21.6284
2023-05-12T19:17:49.420Z,21.5946
2023-05-12T19:18:51.400Z,21.6067
2023-05-12T19:19:53.235Z,21.5993
2023-05-12T19:20:55.139Z,21.6624
2023-05-12T19:21:57.060Z,21.6823
2023-05-12T19:22:58.998Z,21.6323
2023-05-12T19:24:00.905Z,21.6796
2023-05-12T19:25:02.825Z,21.6811
2023-05-12T19:26:04.724Z,21.6950
2023-05-12T19:27:06.640Z,21.6899
2023-05-12T19:28:08.607Z,21.7060
2023-05-12T19:29:10.514Z,21.7744
2023-05-12T19:30:12.415Z,21.7330
2023-05-12T19:31:14.323Z,21.6799
2023-05-12T19:32:16.339Z,21.6518
2023-05-12T19:33:18.199Z,21.6373
2023-05-12T19:34:20.100Z,21.6336
2023-05-12T19:35:22.205Z,21.5817
2023-05-12T19:36:23.925Z,21.5911
2023-05-12T19:37:25.849Z,21.6661
2023-05-12T19:38:27.741Z,21.6472
2023-05-12T19:39:29.677Z,21.6208
2023-05-12T19:40:31.711Z,21.6078
2023-05-12T19:41:33.510Z,21.6541
2023-05-12T19:42:35.414Z,21.7063
2023-05-12T19:43:37.337Z,21.6448
2023-05-12T19:44:39.285Z,21.6052
2023-05-12T19:45:41.200Z,21.5541
2023-05-12T19:46:43.103Z,21.5385
2023-05-12T19:47:45.020Z,21.5354
2023-05-12T19:48:46.922Z,21.5521
2023-05-12T19:49:48.854Z,21.5684
2023-05-12T19:50:50.786Z,21.6029
2023-05-12T19:51:52.689Z,21.6092
2023-05-12T19:52:54.606Z,21.6246
2023-05-12T19:53:56.605Z,21.6290
2023-05-12T19:54:58.511Z,21.6105
2023-05-12T19:56:00.456Z,21.6009
2023-05-12T19:57:02.385Z,21.6077
2023-05-12T19:58:04.291Z,21.6640
2023-05-12T19:59:06.207Z,21.6841
2023-05-12T20:00:08.120Z,21.6772
2023-05-12T20:01:10.054Z,21.6501
2023-05-12T20:02:11.970Z,21.6998
2023-05-12T20:03:13.918Z,21.7324
2023-05-12T20:04:15.790Z,21.7751
2023-05-12T20:05:17.765Z,21.7592
2023-05-12T20:06:19.621Z,21.7162
2023-05-12T20:07:21.548Z,21.7472
2023-05-12T20:08:23.475Z,21.8242
2023-05-12T20:09:25.372Z,21.7826
2023-05-12T20:10:27.302Z,21.7805
2023-05-12T20:11:29.200Z,21.7779
2023-05-12T20:12:31.140Z,21.7000
2023-05-12T20:13:33.056Z,21.6327
2023-05-12T20:14:34.978Z,21.5883
2023-05-12T20:15:36.874Z,21.6903
2023-05-12T20:16:38.820Z,21.7626
2023-05-12T20:17:40.803Z,21.7837
2023-05-12T20:18:42.676Z,21.8096
2023-05-12T20:19:44.556Z,21.7808
2023-05-12T20:20:46.461Z,21.7353
2023-05-12T20:21:48.382Z,21.6938
2023-05-12T20:22:50.308Z,21.6868
2023-05-12T20:23:52.230Z,21.7117
2023-05-12T20:24:54.149Z,21.6954
2023-05-12T20:25:56.082Z,21.6876
2023-05-12T20:26:57.966Z,21.7490
2023-05-12T20:27:59.919Z,21.8127
2023-05-12T20:29:01.835Z,21.7478
2023-05-12T20:30:03.736Z,21.6282
2023-05-12T20:31:05.778Z,21.6190
2023-05-12T20:32:07.570Z,21.6222
2023-05-12T20:33:09.500Z,21.6055
2023-05-12T20:34:11.405Z,21.6041
2023-05-12T20:35:13.327Z,21.6530
2023-05-12T20:36:15.224Z,21.5948
2023-05-12T20:37:17.156Z,21.5739
2023-05-12T20:38:19.066Z,21.5510
2023-05-12T20:39:20.983Z,21.5613
2023-05-12T20:40:22.903Z,21.6060
2023-05-12T20:41:24.806Z,21.6486
2023-05-12T20:42:26.733Z,21.6118
2023-05-12T20:43:28.650Z,21.5452
2023-05-12T20:44:30.571Z,21.5054
2023-05-12T20:45:32.473Z,21.5004
2023-05-12T20:46:36.437Z,21.5530
2023-05-12T20:47:36.456Z,21.5642
2023-05-12T20:48:38.229Z,21.6146
2023-05-12T20:49:40.149Z,21.7056
2023-05-12T20:50:42.084Z,21.6536
2023-05-12T20:51:43.967Z,21.5879
2023-05-12T20:52:45.904Z,21.5568
2023-05-12T20:53:47.794Z,21.5393
2023-05-12T20:54:49.718Z,21.5332
2023-05-12T20:55:51.633Z,21.5796
2023-05-12T20:56:53.562Z,21.5947
2023-05-12T20:57:55.471Z,21.5747
2023-05-12T20:58:57.377Z,21.6182
2023-05-12T20:59:59.298Z,21.6100
2023-05-12T21:01:01.229Z,21.5868
2023-05-12T21:02:03.207Z,21.5993
2023-05-12T21:03:12.216Z,21.6107
2023-05-12T21:04:16.527Z,21.5161
2023-05-12T21:05:18.620Z,21.5196
2023-05-12T21:06:20.348Z,21.5006
2023-05-12T21:07:22.262Z,21.4961
2023-05-12T21:08:24.159Z,21.4863
2023-05-12T21:09:26.104Z,21.4774
2023-05-12T21:10:28.002Z,21.4561
2023-05-12T21:11:29.905Z,21.4855
2023-05-12T21:12:31.835Z,21.5324
2023-05-12T21:13:33.772Z,21.5439
2023-05-12T21:14:35.670Z,21.5343
2023-05-12T21:15:37.581Z,21.5563
2023-05-12T21:16:39.634Z,21.6108
2023-05-12T21:17:41.566Z,21.6026
2023-05-12T21:18:43.385Z,21.5797
2023-05-12T21:19:45.276Z,21.5843
2023-05-12T21:20:47.240Z,21.5605
2023-05-12T21:21:49.097Z,21.5570
2023-05-12T21:22:51.025Z,21.5352
2023-05-12T21:23:52.996Z,21.4962
2023-05-12T21:24:54.850Z,21.4817
2023-05-12T21:25:56.770Z,21.4619
2023-05-12T21:26:58.704Z,21.4876
2023-05-12T21:28:00.605Z,21.5188
2023-05-12T21:29:02.572Z,21.4982
2023-05-12T21:30:04.457Z,21.4913
2023-05-12T21:31:06.355Z,21.4491
2023-05-12T21:32:08.599Z,21.4293
2023-05-12T21:33:10.286Z,21.4577
2023-05-12T21:34:12.178Z,21.4704
2023-05-12T21:35:14.033Z,21.4716
2023-05-12T21:36:15.965Z,21.4405
2023-05-12T21:37:17.869Z,21.3928
2023-05-12T21:38:19.804Z,21.4132
2023-05-12T21:39:21.728Z,21.4682
2023-05-12T21:40:23.706Z,21.4514
2023-05-12T21:41:25.548Z,21.4569
2023-05-12T21:42:27.496Z,21.4747
2023-05-12T21:43:29.406Z,21.4868
2023-05-12T21:44:31.332Z,21.5003
2023-05-12T21:45:33.244Z,21.4970
2023-05-12T21:46:35.271Z,21.4835
2023-05-12T21:47:37.114Z,21.4643
2023-05-12T21:48:38.984Z,21.4512
2023-05-12T21:49:40.918Z,21.4382
2023-05-12T21:50:42.835Z,21.4935
2023-05-12T21:51:44.751Z,21.4724
2023-05-12T21:52:46.705Z,21.4844
2023-05-12T21:53:48.593Z,21.4748
2023-05-12T21:54:50.525Z,21.5003
2023-05-12T21:55:52.428Z,21.5357
2023-05-12T21:56:54.346Z,21.5217
2023-05-12T21:57:56.253Z,21.5534
2023-05-12T21:58:58.218Z,21.5492
2023-05-12T22:00:00.126Z,21.5188
2023-05-12T22:01:02.021Z,21.4544
2023-05-12T22:02:03.948Z,21.4088
2023-05-12T22:03:05.896Z,21.3801
2023-05-12T22:04:07.817Z,21.3919
2023-05-12T22:05:09.758Z,21.4717
2023-05-12T22:06:11.623Z,21.4849
2023-05-12T22:07:13.517Z,21.4914
2023-05-12T22:08:15.447Z,21.4762
2023-05-12T22:09:17.361Z,21.5161
2023-05-12T22:10:19.452Z,21.5435
2023-05-12T22:11:21.229Z,21.5206
2023-05-12T22:12:23.116Z,21.5327
2023-05-12T22:13:25.023Z,21.5823
2023-05-12T22:14:26.936Z,21.6397
2023-05-12T22:15:28.870Z,21.5965
2023-05-12T22:16:40.680Z,21.5607
2023-05-12T22:17:32.750Z,21.4960
2023-05-12T22:18:34.679Z,21.4516
2023-05-12T22:19:36.536Z,21.4470
2023-05-12T22:20:38.453Z,21.4450
2023-05-12T22:21:40.379Z,21.4191
2023-05-12T22:22:42.339Z,21.4446
2023-05-12T22:23:44.220Z,21.4349
2023-05-12T22:24:46.134Z,21.4469
2023-05-12T22:25:48.032Z,21.4836
2023-05-12T22:26:49.970Z,21.5532
2023-05-12T22:27:51.871Z,21.5810
2023-05-12T22:28:53.836Z,21.5338
2023-05-12T22:29:55.721Z,21.4965
2023-05-12T22:30:57.665Z,21.4799
2023-05-12T22:31:59.551Z,21.4685
2023-05-12T22:33:01.584Z,21.4890
2023-05-12T22:34:03.384Z,21.4541
2023-05-12T22:35:05.339Z,21.4922
2023-05-12T22:36:07.243Z,21.4861
2023-05-12T22:37:09.146Z,21.4471
2023-05-12T22:38:11.094Z,21.4264
2023-05-12T22:39:13.001Z,21.4949
2023-05-12T22:40:14.905Z,21.5084
2023-05-12T22:41:16.825Z,21.4972
2023-05-12T22:42:18.763Z,21.4878
2023-05-12T22:43:20.659Z,21.4333
2023-05-12T22:44:22.596Z,21.4412
2023-05-12T22:45:24.520Z,21.5017
2023-05-12T22:46:26.480Z,21.4803
2023-05-12T22:47:28.348Z,21.5273
2023-05-12T22:48:32.099Z,21.5159
2023-05-12T22:49:32.191Z,21.4728
2023-05-12T22:50:34.098Z,21.4438
2023-05-12T22:51:36.025Z,21.4506
2023-05-12T22:52:37.944Z,21.4344
2023-05-12T22:53:39.864Z,21.4424
2023-05-12T22:54:41.781Z,21.4677
2023-05-12T22:55:43.701Z,21.4889
2023-05-12T22:56:45.629Z,21.4763
2023-05-12T22:57:47.538Z,21.3943
2023-05-12T22:58:49.470Z,21.3405
2023-05-12T22:59:51.371Z,21.3356
2023-05-12T23:00:53.330Z,21.4300
2023-05-12T23:01:55.221Z,21.4914
2023-05-12T23:02:57.191Z,21.5303
2023-05-12T23:03:59.068Z,21.4847
2023-05-12T23:05:00.963Z,21.4669
2023-05-12T23:06:02.908Z,21.4689
2023-05-12T23:07:05.903Z,21.4604
2023-05-12T23:08:06.764Z,21.4254
2023-05-12T23:09:08.635Z,21.3674
2023-05-12T23:10:10.578Z,21.3525
2023-05-12T23:11:12.491Z,21.3264
2023-05-12T23:12:14.404Z,21.2975
2023-05-12T23:13:16.370Z,21.3113
2023-05-12T23:14:18.288Z,21.3761
2023-05-12T23:15:20.171Z,21.3742
2023-05-12T23:16:22.093Z,21.3854
2023-05-12T23:17:23.994Z,21.3824
2023-05-12T23:18:25.946Z,21.3704
2023-05-12T23:19:27.837Z,21.3967
2023-05-12T23:20:29.752Z,21.4239
2023-05-12T23:21:31.694Z,21.4081
2023-05-12T23:22:33.605Z,21.4284
2023-05-12T23:23:35.520Z,21.3964
2023-05-12T23:24:37.444Z,21.4218
2023-05-12T23:25:39.371Z,21.4363
2023-05-12T23:26:41.262Z,21.4023
2023-05-12T23:27:43.199Z,21.3823
2023-05-12T23:28:45.473Z,21.3752
2023-05-12T23:29:47.024Z,21.4182
2023-05-12T23:30:48.949Z,21.4725
2023-05-12T23:31:50.930Z,21.4842
2023-05-12T23:32:52.950Z,21.4833
2023-05-12T23:33:54.782Z,21.4838
2023-05-12T23:34:56.632Z,21.5199
2023-05-12T23:35:58.579Z,21.4979
2023-05-12T23:37:00.462Z,21.4845
2023-05-12T23:38:02.398Z,21.4887
2023-05-12T23:39:04.312Z,21.4442
2023-05-12T23:40:06.213Z,21.3700
2023-05-12T23:41:08.142Z,21.3805
2023-05-12T23:42:10.066Z,21.3959
2023-05-12T23:43:11.969Z,21.3792
2023-05-12T23:44:13.898Z,21.3993
2023-05-12T23:45:15.844Z,21.4182
2023-05-12T23:46:17.786Z,21.4421
2023-05-12T23:47:19.650Z,21.5007
2023-05-12T23:48:21.580Z,21.5177
2023-05-12T23:49:23.529Z,21.4690
2023-05-12T23:50:25.412Z,21.4401
2023-05-12T23:51:27.348Z,21.3938
2023-05-12T23:52:29.257Z,21.3668
2023-05-12T23:53:31.209Z,21.3825
2023-05-12T23:54:33.107Z,21.3254
2023-05-12T23:55:35.017Z,21.3209
2023-05-12T23:56:36.973Z,21.3693
2023-05-12T23:57:38.933Z,21.4170
2023-05-12T23:58:40.854Z,21.4372
2023-05-12T23:59:42.754Z,21.3684
